Time,TemperatureF,DewpointF,PressureIn,WindDirection,WindDirectionDegrees,WindSpeedMPH,WindSpeedGustMPH,Humidity,HourlyPrecipIn,Conditions,Clouds,dailyrainin,SoftwareType,DateUTC
2013-03-11 00:02:00,59.0,48.0,29.74,SSE,155,6.0,17.0,66,0.00,,,0.02,,2013-03-11 04:02:00,
2013-03-11 00:12:00,59.0,48.0,29.74,SSE,155,6.0,17.0,66,0.00,,,0.02,,2013-03-11 04:12:00,
2013-03-11 00:22:00,58.0,47.0,29.73,South,169,6.0,14.0,68,0.00,,,0.02,,2013-03-11 04:22:00,
2013-03-11 00:32:00,58.0,49.0,29.72,SSE,159,6.0,13.0,71,0.00,,,0.02,,2013-03-11 04:32:00,
2013-03-11 00:42:00,58.0,49.0,29.72,SSE,159,6.0,13.0,71,0.00,,,0.02,,2013-03-11 04:42:00,
2013-03-11 00:53:00,57.0,49.0,29.71,SSE,161,4.0,12.0,74,0.00,,,0.02,,2013-03-11 04:53:00,
2013-03-11 01:03:00,57.0,50.0,29.71,South,172,4.0,11.0,76,0.00,,,0.02,,2013-03-11 05:03:00,
2013-03-11 01:12:00,57.0,50.0,29.71,South,172,4.0,11.0,76,0.00,,,0.02,,2013-03-11 05:12:00,
2013-03-11 01:22:00,56.0,49.0,29.73,SSE,151,3.0,13.0,78,0.00,,,0.02,,2013-03-11 05:22:00,
2013-03-11 01:32:00,56.0,50.0,29.73,SSE,162,1.0,7.0,79,0.00,,,0.02,,2013-03-11 05:32:00,
2013-03-11 01:42:00,56.0,50.0,29.73,SSE,162,1.0,7.0,79,0.00,,,0.02,,2013-03-11 05:42:00,
2013-03-11 01:52:00,55.0,49.0,29.72,SSE,163,2.0,9.0,81,0.00,,,0.02,,2013-03-11 05:52:00,
2013-03-11 02:02:00,54.0,50.0,29.71,SSE,164,2.0,12.0,86,0.01,,,0.03,,2013-03-11 06:02:00,
2013-03-11 02:12:00,54.0,50.0,29.71,SSE,164,2.0,12.0,86,0.01,,,0.03,,2013-03-11 06:12:00,
2013-03-11 02:22:00,53.0,50.0,29.71,SSE,152,2.0,10.0,88,0.02,,,0.04,,2013-03-11 06:22:00,
2013-03-11 02:32:00,52.0,49.0,29.71,SSE,168,2.0,10.0,89,0.03,,,0.05,,2013-03-11 06:32:00,
2013-03-11 02:42:00,52.0,49.0,29.71,SSE,168,2.0,10.0,89,0.03,,,0.05,,2013-03-11 06:42:00,
2013-03-11 02:53:00,52.0,49.0,29.70,SSE,147,2.0,12.0,91,0.04,,,0.06,,2013-03-11 06:53:00,
2013-03-11 03:02:00,52.0,50.0,29.70,SSE,151,3.0,9.0,92,0.04,,,0.07,,2013-03-11 07:02:00,
2013-03-11 03:12:00,52.0,50.0,29.70,SSE,159,1.0,9.0,93,0.04,,,0.08,,2013-03-11 07:12:00,
2013-03-11 03:22:00,52.0,50.0,29.70,SSE,159,1.0,9.0,93,0.04,,,0.08,,2013-03-11 07:22:00,
2013-03-11 03:32:00,51.0,49.0,29.69,SSE,164,2.0,8.0,94,0.04,,,0.09,,2013-03-11 07:32:00,
2013-03-11 03:42:00,51.0,49.0,29.69,SSE,164,2.0,8.0,94,0.04,,,0.09,,2013-03-11 07:42:00,
2013-03-11 03:52:00,51.0,49.0,29.69,South,175,1.0,6.0,94,0.04,,,0.10,,2013-03-11 07:52:00,
2013-03-11 04:02:00,51.0,50.0,29.68,SSE,167,0.0,4.0,95,0.03,,,0.10,,2013-03-11 08:02:00,
2013-03-11 04:12:00,51.0,50.0,29.68,SSE,167,0.0,4.0,95,0.03,,,0.10,,2013-03-11 08:12:00,
2013-03-11 04:32:00,52.0,51.0,29.68,SSE,164,2.0,8.0,96,0.02,,,0.11,,2013-03-11 08:32:00,
2013-03-11 04:42:00,52.0,51.0,29.68,SSE,164,2.0,8.0,96,0.02,,,0.11,,2013-03-11 08:42:00,
2013-03-11 04:52:00,52.0,51.0,29.66,SSE,164,2.0,8.0,96,0.02,,,0.12,,2013-03-11 08:52:00,
2013-03-11 05:02:00,52.0,51.0,29.67,South,170,2.0,8.0,96,0.03,,,0.13,,2013-03-11 09:02:00,
2013-03-11 05:12:00,52.0,51.0,29.67,South,170,2.0,8.0,96,0.03,,,0.13,,2013-03-11 09:12:00,
2013-03-11 05:22:00,52.0,51.0,29.65,SSE,161,2.0,8.0,96,0.02,,,0.13,,2013-03-11 09:22:00,
2013-03-11 05:32:00,52.0,51.0,29.66,South,182,2.0,6.0,96,0.03,,,0.14,,2013-03-11 09:32:00,
2013-03-11 05:42:00,52.0,51.0,29.66,South,182,2.0,6.0,96,0.03,,,0.14,,2013-03-11 09:42:00,
2013-03-11 05:52:00,52.0,51.0,29.64,SSW,208,1.0,6.0,96,0.02,,,0.14,,2013-03-11 09:52:00,
2013-03-11 06:02:00,52.0,51.0,29.65,SSW,203,0.0,4.0,96,0.02,,,0.15,,2013-03-11 10:02:00,
2013-03-11 06:12:00,52.0,51.0,29.65,SSW,203,0.0,4.0,96,0.02,,,0.15,,2013-03-11 10:12:00,
2013-03-11 06:22:00,52.0,51.0,29.66,SSW,207,2.0,8.0,96,0.02,,,0.15,,2013-03-11 10:22:00,
2013-03-11 06:32:00,52.0,51.0,29.67,SSW,208,2.0,8.0,96,0.01,,,0.15,,2013-03-11 10:32:00,
2013-03-11 06:42:00,52.0,51.0,29.67,SSW,208,2.0,8.0,96,0.01,,,0.15,,2013-03-11 10:42:00,
2013-03-11 06:52:00,52.0,51.0,29.67,SW,222,2.0,9.0,95,0.01,,,0.15,,2013-03-11 10:52:00,
2013-03-11 07:02:00,51.0,50.0,29.67,SW,221,2.0,8.0,95,0.00,,,0.15,,2013-03-11 11:02:00,
2013-03-11 07:12:00,51.0,50.0,29.67,SW,221,2.0,8.0,95,0.00,,,0.15,,2013-03-11 11:12:00,
2013-03-11 07:22:00,51.0,50.0,29.67,SW,236,5.0,13.0,95,0.01,,,0.16,,2013-03-11 11:22:00,
2013-03-11 07:32:00,51.0,49.0,29.67,SW,228,3.0,12.0,94,0.01,,,0.16,,2013-03-11 11:32:00,
2013-03-11 07:42:00,51.0,49.0,29.67,SW,228,3.0,12.0,94,0.01,,,0.16,,2013-03-11 11:42:00,
2013-03-11 07:53:00,50.0,48.0,29.66,SW,216,3.0,9.0,94,0.01,,,0.16,,2013-03-11 11:53:00,
2013-03-11 08:02:00,50.0,49.0,29.66,SSW,208,2.0,7.0,95,0.01,,,0.16,,2013-03-11 12:02:00,
2013-03-11 08:12:00,50.0,49.0,29.66,SSW,208,2.0,7.0,95,0.01,,,0.16,,2013-03-11 12:12:00,
2013-03-11 08:22:00,50.0,49.0,29.66,South,190,3.0,9.0,95,0.00,,,0.16,,2013-03-11 12:22:00,
2013-03-11 08:32:00,50.0,49.0,29.66,SSW,196,1.0,6.0,95,0.00,,,0.16,,2013-03-11 12:32:00,
2013-03-11 08:42:00,50.0,49.0,29.66,SSW,196,1.0,6.0,95,0.00,,,0.16,,2013-03-11 12:42:00,
2013-03-11 08:53:00,50.0,49.0,29.67,SSW,209,1.0,6.0,95,0.00,,,0.16,,2013-03-11 12:53:00,
2013-03-11 09:02:00,50.0,49.0,29.67,SSW,199,2.0,6.0,96,0.00,,,0.16,,2013-03-11 13:02:00,
2013-03-11 09:12:00,50.0,49.0,29.67,SSW,199,2.0,6.0,96,0.00,,,0.16,,2013-03-11 13:12:00,
2013-03-11 09:22:00,50.0,49.0,29.66,South,181,1.0,7.0,95,0.00,,,0.16,,2013-03-11 13:22:00,
2013-03-11 09:32:00,50.0,49.0,29.65,SSW,201,2.0,9.0,95,0.00,,,0.16,,2013-03-11 13:32:00,
2013-03-11 09:42:00,50.0,49.0,29.65,SSW,201,2.0,9.0,95,0.00,,,0.16,,2013-03-11 13:42:00,
2013-03-11 09:52:00,49.0,48.0,29.64,South,174,0.0,6.0,95,0.00,,,0.16,,2013-03-11 13:52:00,
2013-03-11 10:02:00,49.0,48.0,29.64,South,180,0.0,3.0,95,0.00,,,0.16,,2013-03-11 14:02:00,
2013-03-11 10:12:00,49.0,48.0,29.64,South,180,0.0,3.0,95,0.00,,,0.16,,2013-03-11 14:12:00,
2013-03-11 10:22:00,49.0,48.0,29.63,SSE,166,1.0,7.0,95,0.00,,,0.16,,2013-03-11 14:22:00,
2013-03-11 10:32:00,49.0,47.0,29.62,South,181,2.0,7.0,94,0.00,,,0.16,,2013-03-11 14:32:00,
2013-03-11 10:42:00,49.0,47.0,29.62,South,181,2.0,7.0,94,0.00,,,0.16,,2013-03-11 14:42:00,
2013-03-11 10:53:00,49.0,46.0,29.63,SW,231,5.0,14.0,91,0.00,,,0.16,,2013-03-11 14:53:00,
2013-03-11 11:02:00,48.0,45.0,29.64,SW,231,6.0,14.0,91,0.00,,,0.16,,2013-03-11 15:02:00,
2013-03-11 11:12:00,48.0,45.0,29.64,SW,231,6.0,14.0,91,0.00,,,0.16,,2013-03-11 15:12:00,
2013-03-11 11:22:00,47.0,45.0,29.65,WSW,246,5.0,11.0,93,0.00,,,0.16,,2013-03-11 15:22:00,
2013-03-11 11:32:00,47.0,45.0,29.64,WSW,244,4.0,11.0,93,0.00,,,0.16,,2013-03-11 15:32:00,
2013-03-11 11:42:00,47.0,45.0,29.64,WSW,244,4.0,11.0,93,0.00,,,0.16,,2013-03-11 15:42:00,
2013-03-11 11:53:00,46.0,44.0,29.65,SW,234,5.0,11.0,92,0.00,,,0.16,,2013-03-11 15:53:00,
2013-03-11 12:02:00,46.0,43.0,29.64,SW,232,6.0,12.0,89,0.00,,,0.16,,2013-03-11 16:02:00,
2013-03-11 12:12:00,46.0,43.0,29.64,SW,232,6.0,12.0,89,0.00,,,0.16,,2013-03-11 16:12:00,
2013-03-11 12:22:00,46.0,43.0,29.62,WSW,246,6.0,18.0,88,0.01,,,0.17,,2013-03-11 16:22:00,
2013-03-11 12:32:00,46.0,42.0,29.64,WSW,242,6.0,14.0,87,0.01,,,0.17,,2013-03-11 16:32:00,
2013-03-11 12:42:00,46.0,42.0,29.64,WSW,242,6.0,14.0,87,0.01,,,0.17,,2013-03-11 16:42:00,
2013-03-11 12:52:00,44.0,41.0,29.66,WSW,251,6.0,12.0,89,0.01,,,0.17,,2013-03-11 16:52:00,
2013-03-11 13:02:00,44.0,41.0,29.66,WSW,246,6.0,16.0,90,0.01,,,0.17,,2013-03-11 17:02:00,
2013-03-11 13:14:00,44.0,41.0,29.66,WSW,246,6.0,16.0,90,0.01,,,0.17,,2013-03-11 17:14:00,
2013-03-11 13:24:00,44.0,41.0,29.67,WSW,243,4.0,10.0,90,0.00,,,0.17,,2013-03-11 17:24:00,
2013-03-11 13:34:00,43.0,41.0,29.68,West,259,4.0,10.0,91,0.00,,,0.17,,2013-03-11 17:34:00,
2013-03-11 13:42:00,43.0,41.0,29.68,West,259,4.0,10.0,91,0.00,,,0.17,,2013-03-11 17:42:00,
2013-03-11 13:53:00,42.0,40.0,29.67,WSW,256,5.0,11.0,91,0.00,,,0.17,,2013-03-11 17:53:00,
2013-03-11 14:02:00,42.0,39.0,29.67,WSW,256,4.0,9.0,90,0.00,,,0.17,,2013-03-11 18:02:00,
2013-03-11 14:12:00,42.0,39.0,29.67,WSW,256,4.0,9.0,90,0.00,,,0.17,,2013-03-11 18:12:00,
2013-03-11 14:22:00,42.0,39.0,29.67,West,260,6.0,13.0,89,0.00,,,0.17,,2013-03-11 18:22:00,
2013-03-11 14:32:00,42.0,38.0,29.66,WSW,257,5.0,16.0,87,0.00,,,0.17,,2013-03-11 18:32:00,
2013-03-11 14:42:00,42.0,38.0,29.66,WSW,257,5.0,16.0,87,0.00,,,0.17,,2013-03-11 18:42:00,
2013-03-11 14:52:00,41.0,37.0,29.66,WSW,248,6.0,19.0,86,0.00,,,0.17,,2013-03-11 18:52:00,
2013-03-11 15:02:00,42.0,38.0,29.66,WSW,249,6.0,17.0,85,0.00,,,0.17,,2013-03-11 19:02:00,
2013-03-11 15:12:00,42.0,38.0,29.66,WSW,249,6.0,17.0,85,0.00,,,0.17,,2013-03-11 19:12:00,
2013-03-11 15:22:00,41.0,37.0,29.67,West,263,5.0,12.0,86,0.00,,,0.17,,2013-03-11 19:22:00,
2013-03-11 15:32:00,43.0,38.0,29.66,WSW,245,5.0,11.0,82,0.00,,,0.17,,2013-03-11 19:32:00,
2013-03-11 15:42:00,43.0,38.0,29.66,WSW,245,5.0,11.0,82,0.00,,,0.17,,2013-03-11 19:42:00,
2013-03-11 15:53:00,42.0,37.0,29.67,SW,234,6.0,12.0,82,0.00,,,0.17,,2013-03-11 19:53:00,
2013-03-11 16:02:00,41.0,36.0,29.67,WSW,257,5.0,14.0,83,0.00,,,0.17,,2013-03-11 20:02:00,
2013-03-11 16:12:00,41.0,36.0,29.67,WSW,257,5.0,14.0,83,0.00,,,0.17,,2013-03-11 20:12:00,
2013-03-11 16:22:00,41.0,37.0,29.68,WSW,258,4.0,13.0,84,0.00,,,0.17,,2013-03-11 20:22:00,
2013-03-11 16:32:00,40.0,36.0,29.69,WSW,252,5.0,12.0,84,0.00,,,0.17,,2013-03-11 20:32:00,
2013-03-11 16:43:00,40.0,36.0,29.69,WSW,252,5.0,12.0,84,0.00,,,0.17,,2013-03-11 20:43:00,
2013-03-11 16:53:00,40.0,36.0,29.69,WSW,250,5.0,12.0,84,0.00,,,0.17,,2013-03-11 20:53:00,
2013-03-11 17:02:00,40.0,35.0,29.70,WSW,247,6.0,18.0,81,0.00,,,0.17,,2013-03-11 21:02:00,
2013-03-11 17:12:00,40.0,35.0,29.70,WSW,247,6.0,18.0,81,0.00,,,0.17,,2013-03-11 21:12:00,
2013-03-11 17:22:00,39.0,35.0,29.71,West,267,5.0,10.0,84,0.00,,,0.17,,2013-03-11 21:22:00,
2013-03-11 17:32:00,38.0,34.0,29.73,WSW,256,6.0,15.0,85,0.00,,,0.17,,2013-03-11 21:32:00,
2013-03-11 17:43:00,38.0,34.0,29.73,WSW,256,6.0,15.0,85,0.00,,,0.17,,2013-03-11 21:43:00,
2013-03-11 17:53:00,37.0,33.0,29.74,West,266,5.0,12.0,86,0.00,,,0.17,,2013-03-11 21:53:00,
2013-03-11 18:02:00,37.0,34.0,29.75,WSW,258,5.0,11.0,87,0.00,,,0.17,,2013-03-11 22:02:00,
2013-03-11 18:12:00,37.0,34.0,29.75,WSW,258,5.0,11.0,87,0.00,,,0.17,,2013-03-11 22:12:00,
2013-03-11 18:22:00,36.0,33.0,29.75,WSW,250,5.0,12.0,87,0.00,,,0.17,,2013-03-11 22:22:00,
2013-03-11 18:32:00,36.0,33.0,29.76,West,259,6.0,12.0,88,0.00,,,0.17,,2013-03-11 22:32:00,
2013-03-11 18:43:00,36.0,33.0,29.76,West,259,6.0,12.0,88,0.00,,,0.17,,2013-03-11 22:43:00,
2013-03-11 18:53:00,36.0,33.0,29.76,West,261,3.0,7.0,89,0.00,,,0.17,,2013-03-11 22:53:00,
2013-03-11 19:02:00,35.0,32.0,29.76,WSW,251,3.0,8.0,89,0.00,,,0.17,,2013-03-11 23:02:00,
2013-03-11 19:12:00,35.0,32.0,29.76,WSW,251,3.0,8.0,89,0.00,,,0.17,,2013-03-11 23:12:00,
2013-03-11 19:22:00,35.0,32.0,29.77,WSW,258,4.0,11.0,90,0.00,,,0.17,,2013-03-11 23:22:00,
2013-03-11 19:32:00,35.0,33.0,29.78,WSW,255,4.0,10.0,91,0.00,,,0.17,,2013-03-11 23:32:00,
2013-03-11 19:43:00,35.0,33.0,29.80,WSW,256,3.0,12.0,91,0.00,,,0.17,,2013-03-11 23:43:00,
2013-03-11 19:53:00,35.0,33.0,29.80,WSW,256,3.0,12.0,91,0.00,,,0.17,,2013-03-11 23:53:00,
2013-03-11 20:02:00,35.0,32.0,29.80,WSW,248,4.0,9.0,90,0.00,,,0.17,,2013-03-12 00:02:00,
2013-03-11 20:12:00,35.0,32.0,29.80,WSW,248,4.0,9.0,90,0.00,,,0.17,,2013-03-12 00:12:00,
2013-03-11 20:22:00,35.0,32.0,29.81,West,262,3.0,10.0,89,0.00,,,0.17,,2013-03-12 00:22:00,
2013-03-11 20:32:00,35.0,32.0,29.82,WSW,254,4.0,11.0,89,0.00,,,0.17,,2013-03-12 00:32:00,
2013-03-11 20:42:00,35.0,32.0,29.82,WSW,254,4.0,11.0,89,0.00,,,0.17,,2013-03-12 00:42:00,
2013-03-11 20:53:00,35.0,32.0,29.83,West,265,4.0,7.0,89,0.00,,,0.17,,2013-03-12 00:53:00,
2013-03-11 21:02:00,35.0,32.0,29.84,West,259,3.0,9.0,90,0.00,,,0.17,,2013-03-12 01:02:00,
2013-03-11 21:12:00,35.0,32.0,29.84,West,259,3.0,9.0,90,0.00,,,0.17,,2013-03-12 01:12:00,
2013-03-11 21:22:00,34.0,31.0,29.85,WSW,258,4.0,9.0,90,0.00,,,0.17,,2013-03-12 01:22:00,
2013-03-11 21:32:00,34.0,31.0,29.85,WSW,251,4.0,13.0,90,0.00,,,0.17,,2013-03-12 01:32:00,
2013-03-11 21:42:00,34.0,31.0,29.85,WSW,251,4.0,13.0,90,0.00,,,0.17,,2013-03-12 01:42:00,
2013-03-11 21:52:00,34.0,31.0,29.86,WSW,247,3.0,11.0,90,0.00,,,0.15,,2013-03-12 01:52:00,
2013-03-11 22:02:00,34.0,31.0,29.86,WSW,258,5.0,11.0,89,0.00,,,0.15,,2013-03-12 02:02:00,
2013-03-11 22:12:00,34.0,31.0,29.86,WSW,258,5.0,11.0,89,0.00,,,0.15,,2013-03-12 02:12:00,
2013-03-11 22:22:00,34.0,31.0,29.87,WSW,252,4.0,10.0,89,0.00,,,0.15,,2013-03-12 02:22:00,
2013-03-11 22:32:00,34.0,31.0,29.88,WSW,253,4.0,13.0,89,0.00,,,0.15,,2013-03-12 02:32:00,
2013-03-11 22:42:00,34.0,31.0,29.88,WSW,253,4.0,13.0,89,0.00,,,0.15,,2013-03-12 02:42:00,
2013-03-11 22:52:00,34.0,31.0,29.88,WSW,252,3.0,11.0,89,0.00,,,0.15,,2013-03-12 02:52:00,
2013-03-11 23:02:00,34.0,31.0,29.88,WSW,248,4.0,10.0,89,0.00,,,0.15,,2013-03-12 03:02:00,
2013-03-11 23:12:00,34.0,31.0,29.88,WSW,248,4.0,10.0,89,0.00,,,0.15,,2013-03-12 03:12:00,
2013-03-11 23:22:00,34.0,31.0,29.89,West,262,3.0,9.0,89,0.00,,,0.15,,2013-03-12 03:22:00,
2013-03-11 23:32:00,34.0,31.0,29.89,West,263,3.0,7.0,88,0.00,,,0.15,,2013-03-12 03:32:00,
2013-03-11 23:42:00,34.0,31.0,29.89,West,263,3.0,7.0,88,0.00,,,0.15,,2013-03-12 03:42:00,
2013-03-11 23:53:00,34.0,31.0,29.90,West,263,4.0,10.0,88,0.00,,,0.15,,2013-03-12 03:53:00,